Time;durP1;ratioP1;P1;durP2;ratioP2;P2;SDS_P1;SDS_P2;PMS_P1;PMS_P2;Temp;Humidity;BMP_temperature;BMP_pressure;BME280_temperature;BME280_humidity;BME280_pressure;Samples;Min_cycle;Max_cycle;Signal;HPM_P1;HPM_P2
2021/12/04 00:01:51;;;;;;;23.42;13.93;;;;;;;-0.15;99.82;99556.72;6124885;23;20014;-78
2021/12/04 00:04:35;;;;;;;18.52;12.68;;;;;;;-0.24;100.00;99558.94;6123751;23;20459;-76
2021/12/04 00:07:03;;;;;;;25.98;14.52;;;;;;;-0.32;100.00;99558.47;6124995;23;20017;-75
2021/12/04 00:09:29;;;;;;;22.05;13.43;;;;;;;-0.47;100.00;99550.50;6124793;23;20006;-74
2021/12/04 00:12:01;;;;;;;22.23;13.82;;;;;;;-0.47;100.00;99560.88;6124944;23;20012;-77
2021/12/04 00:14:26;;;;;;;24.15;13.43;;;;;;;-0.48;100.00;99573.94;6130011;23;20017;-77
2021/12/04 00:16:53;;;;;;;19.75;12.90;;;;;;;-0.57;100.00;99570.00;6121620;23;20025;-78
2021/12/04 00:19:19;;;;;;;18.02;11.82;;;;;;;-0.55;100.00;99567.34;6121607;23;20018;-77
2021/12/04 00:21:53;;;;;;;19.38;12.20;;;;;;;-0.49;100.00;99562.72;6123965;23;20014;-78
2021/12/04 00:24:19;;;;;;;16.73;11.57;;;;;;;-0.47;100.00;99560.88;6124264;23;20339;-78
2021/12/04 00:26:47;;;;;;;16.95;11.38;;;;;;;-0.45;100.00;99559.06;6126267;23;20010;-79
2021/12/04 00:29:13;;;;;;;21.70;11.35;;;;;;;-0.41;100.00;99546.78;6134082;23;20010;-77
2021/12/04 00:31:44;;;;;;;17.27;11.77;;;;;;;-0.31;100.00;99554.97;6156795;23;20018;-77
2021/12/04 00:34:09;;;;;;;19.95;11.27;;;;;;;-0.22;100.00;99541.53;6135248;23;20431;-77
2021/12/04 00:50:12;;;;;;;17.88;12.00;;;;;;;-0.19;99.92;99512.88;6069863;23;20053;-79
2021/12/04 00:52:38;;;;;;;21.48;11.90;;;;;;;-0.23;100.00;99511.34;6122441;23;20017;-78
2021/12/04 00:55:05;;;;;;;17.95;12.45;;;;;;;-0.28;100.00;99508.13;6146503;23;20039;-78
2021/12/04 00:57:32;;;;;;;21.13;14.02;;;;;;;-0.42;100.00;99512.28;6123239;23;20020;-78
2021/12/04 00:59:58;;;;;;;21.67;14.45;;;;;;;-0.50;100.00;99509.19;6123360;23;20021;-78
2021/12/04 01:02:23;;;;;;;22.40;14.05;;;;;;;-0.54;100.00;99512.88;6123099;23;20010;-79
2021/12/04 01:04:50;;;;;;;22.58;14.25;;;;;;;-0.57;100.00;99514.75;6123223;23;20470;-78
2021/12/04 01:07:16;;;;;;;21.65;13.95;;;;;;;-0.66;100.00;99513.47;6123048;23;20335;-77
2021/12/04 01:09:42;;;;;;;22.13;14.30;;;;;;;-0.67;100.00;99505.75;6122752;23;20020;-76
2021/12/04 01:12:08;;;;;;;21.55;14.02;;;;;;;-0.64;100.00;99511.59;6122973;23;20029;-78
2021/12/04 01:14:34;;;;;;;22.80;15.35;;;;;;;-0.68;100.00;99517.84;6121694;23;20039;-77
2021/12/04 01:17:00;;;;;;;23.15;15.32;;;;;;;-0.70;100.00;99526.59;6122649;23;20014;-78
2021/12/04 01:19:26;;;;;;;21.83;15.13;;;;;;;-0.72;100.00;99524.13;6122188;23;20014;-78
2021/12/04 01:21:53;;;;;;;22.08;14.40;;;;;;;-0.69;100.00;99517.94;6121945;23;20054;-78
2021/12/04 01:24:20;;;;;;;22.27;14.30;;;;;;;-0.66;100.00;99521.22;6122867;23;20010;-77
2021/12/04 01:26:47;;;;;;;20.25;15.20;;;;;;;-0.61;100.00;99511.47;6122741;23;20084;-78
2021/12/04 01:29:13;;;;;;;25.08;15.07;;;;;;;-0.61;100.00;99506.28;6123024;23;20071;-77
2021/12/04 01:31:38;;;;;;;23.50;15.82;;;;;;;-0.62;100.00;99509.78;6122248;23;20096;-77
2021/12/04 01:34:04;;;;;;;24.73;15.45;;;;;;;-0.69;100.00;99518.78;6122650;23;20010;-79
2021/12/04 01:36:30;;;;;;;22.85;14.65;;;;;;;-0.78;100.00;99524.41;6122469;23;20006;-79
2021/12/04 01:38:56;;;;;;;21.10;13.57;;;;;;;-0.80;100.00;99531.41;6122479;23;20021;-78
2021/12/04 01:41:22;;;;;;;21.20;14.10;;;;;;;-0.96;100.00;99541.66;6122442;23;20090;-77
2021/12/04 01:43:47;;;;;;;21.13;13.98;;;;;;;-1.14;100.00;99545.09;6122851;23;20045;-78
2021/12/04 01:46:13;;;;;;;20.63;14.70;;;;;;;-1.24;100.00;99542.06;6122803;23;20387;-79
2021/12/04 01:48:39;;;;;;;22.52;13.98;;;;;;;-1.24;100.00;99536.88;6122179;23;20022;-78
2021/12/04 01:51:05;;;;;;;23.20;15.25;;;;;;;-1.21;100.00;99532.47;6120043;23;20443;-77
2021/12/04 01:53:30;;;;;;;25.00;14.20;;;;;;;-1.14;100.00;99536.47;6120807;23;20597;-77
2021/12/04 01:55:57;;;;;;;19.30;13.63;;;;;;;-1.15;100.00;99534.78;6120891;23;20009;-78
2021/12/04 01:58:25;;;;;;;26.38;13.50;;;;;;;-1.09;100.00;99534.50;6121443;23;20021;-78
2021/12/04 02:00:51;;;;;;;24.67;14.77;;;;;;;-1.03;100.00;99527.28;6123260;23;20309;-79
2021/12/04 02:03:18;;;;;;;19.48;12.68;;;;;;;-1.01;100.00;99528.06;6125156;23;20033;-78
2021/12/04 02:05:45;;;;;;;17.80;12.80;;;;;;;-0.97;100.00;99524.41;6123990;23;20419;-78
2021/12/04 02:08:16;;;;;;;22.80;12.95;;;;;;;-0.99;100.00;99521.06;6124646;23;20068;-78
2021/12/04 02:10:44;;;;;;;23.05;13.23;;;;;;;-1.00;100.00;99515.97;6122601;23;20041;-78
2021/12/04 02:13:10;;;;;;;19.13;13.25;;;;;;;-0.95;100.00;99511.41;6123593;23;20005;-77
2021/12/04 02:15:38;;;;;;;16.35;12.20;;;;;;;-0.91;100.00;99502.56;6124045;23;20020;-78
2021/12/04 02:18:06;;;;;;;15.95;11.77;;;;;;;-0.99;100.00;99502.09;6124758;23;20073;-77
2021/12/04 02:20:34;;;;;;;16.25;11.45;;;;;;;-1.18;100.00;99499.53;6124203;23;20006;-77
2021/12/04 02:23:02;;;;;;;17.58;11.52;;;;;;;-1.33;100.00;99503.66;6124453;23;20082;-77
2021/12/04 02:25:28;;;;;;;16.60;11.45;;;;;;;-1.33;100.00;99493.28;6124365;23;20120;-77
2021/12/04 02:27:53;;;;;;;20.25;12.15;;;;;;;-1.27;100.00;99500.78;6123996;23;20025;-77
2021/12/04 02:30:26;;;;;;;16.30;11.07;;;;;;;-1.18;100.00;99480.56;6123896;23;20363;-75
2021/12/04 02:32:53;;;;;;;18.73;12.23;;;;;;;-1.12;100.00;99482.88;6124331;23;20510;-80
2021/12/04 02:35:20;;;;;;;17.45;11.18;;;;;;;-1.05;100.00;99477.31;6124879;23;20048;-76
2021/12/04 02:37:46;;;;;;;17.42;11.57;;;;;;;-1.00;100.00;99469.34;6123907;23;20013;-77
2021/12/04 02:40:20;;;;;;;18.42;11.88;;;;;;;-1.01;100.00;99472.84;6124440;23;20038;-78
2021/12/04 02:42:46;;;;;;;15.27;11.45;;;;;;;-1.05;100.00;99479.06;6124136;23;20514;-78
2021/12/04 02:45:13;;;;;;;19.15;11.68;;;;;;;-1.01;100.00;99470.25;6124612;23;20093;-77
2021/12/04 02:47:39;;;;;;;18.92;11.32;;;;;;;-0.98;100.00;99454.56;6124154;23;20021;-78
2021/12/04 02:50:07;;;;;;;16.08;12.00;;;;;;;-0.95;100.00;99464.78;6124522;23;20002;-78
2021/12/04 02:52:33;;;;;;;17.08;11.30;;;;;;;-1.01;100.00;99465.06;6123261;23;20045;-79
2021/12/04 02:55:00;;;;;;;18.10;11.07;;;;;;;-1.01;100.00;99470.25;6147198;23;20098;-78
2021/12/04 02:57:27;;;;;;;15.25;10.75;;;;;;;-1.02;100.00;99471.16;6123694;23;20019;-79
2021/12/04 02:59:53;;;;;;;19.08;11.73;;;;;;;-1.05;100.00;99468.69;6124504;23;20089;-78
2021/12/04 03:02:23;;;;;;;15.65;11.57;;;;;;;-1.13;100.00;99470.84;6123984;23;20018;-75
2021/12/04 03:04:51;;;;;;;20.23;12.80;;;;;;;-1.16;100.00;99461.44;6123620;23;20042;-77
2021/12/04 03:07:18;;;;;;;17.40;12.27;;;;;;;-1.17;100.00;99466.69;6123863;23;20018;-78
2021/12/04 03:09:45;;;;;;;18.35;12.13;;;;;;;-1.20;100.00;99466.84;6124033;23;20006;-77
2021/12/04 03:12:12;;;;;;;19.00;12.02;;;;;;;-1.16;100.00;99460.59;6124431;23;20064;-78
2021/12/04 03:14:38;;;;;;;19.00;13.13;;;;;;;-1.11;100.00;99462.06;6122597;23;20014;-79
2021/12/04 03:17:05;;;;;;;18.33;11.68;;;;;;;-1.05;100.00;99447.97;6124302;23;20140;-79
2021/12/04 03:19:30;;;;;;;19.15;11.85;;;;;;;-0.98;100.00;99449.38;6124076;23;20068;-78
2021/12/04 03:21:56;;;;;;;16.38;12.13;;;;;;;-0.97;100.00;99451.91;6124623;23;20367;-78
2021/12/04 03:24:24;;;;;;;17.58;12.77;;;;;;;-1.02;100.00;99445.25;6124265;23;20017;-79
2021/12/04 03:26:50;;;;;;;18.58;13.02;;;;;;;-1.16;100.00;99434.72;6124306;23;20013;-77
2021/12/04 03:29:20;;;;;;;19.80;12.80;;;;;;;-1.18;100.00;99432.22;6124362;23;20021;-79
2021/12/04 03:42:36;;;;;;;18.17;12.63;;;;;;;-1.35;100.00;99422.63;6142719;23;20029;-80
2021/12/04 03:45:04;;;;;;;18.58;12.73;;;;;;;-1.28;100.00;99416.25;6141379;23;20348;-77
2021/12/04 03:47:30;;;;;;;20.17;12.23;;;;;;;-1.25;100.00;99426.47;6129055;23;20084;-78
2021/12/04 03:49:57;;;;;;;16.02;11.73;;;;;;;-1.40;100.00;99426.34;6127607;23;20010;-77
2021/12/04 03:52:22;;;;;;;19.75;12.48;;;;;;;-1.59;100.00;99426.34;6126163;23;20048;-79
2021/12/04 03:54:48;;;;;;;21.73;13.25;;;;;;;-1.59;100.00;99426.34;6124940;23;20050;-78
2021/12/04 03:57:13;;;;;;;20.35;14.23;;;;;;;-1.53;100.00;99420.88;6124350;23;20320;-78
2021/12/04 03:59:43;;;;;;;21.67;13.00;;;;;;;-1.51;100.00;99418.25;6123664;23;20013;-78
2021/12/04 04:02:11;;;;;;;23.70;13.93;;;;;;;-1.57;100.00;99409.00;6124141;23;20014;-79
2021/12/04 04:04:37;;;;;;;19.55;13.57;;;;;;;-1.60;100.00;99408.31;6123458;23;19998;-79
2021/12/04 04:07:03;;;;;;;18.13;12.27;;;;;;;-1.62;100.00;99405.81;6122485;23;20024;-78
2021/12/04 04:09:29;;;;;;;21.60;13.93;;;;;;;-1.59;100.00;99410.00;6123985;23;20388;-78
2021/12/04 04:11:56;;;;;;;20.98;13.57;;;;;;;-1.62;100.00;99405.81;6122936;23;20523;-79
2021/12/04 04:14:22;;;;;;;20.98;12.93;;;;;;;-1.58;100.00;99396.97;6121953;23;20331;-78
2021/12/04 04:16:49;;;;;;;15.60;12.35;;;;;;;-1.47;100.00;99384.38;6122253;23;20018;-79
2021/12/04 04:19:14;;;;;;;23.90;13.23;;;;;;;-1.36;100.00;99387.31;6123003;23;20386;-79
2021/12/04 04:21:41;;;;;;;22.08;13.73;;;;;;;-1.37;100.00;99405.50;6122906;23;20021;-79
2021/12/04 04:24:13;;;;;;;21.30;13.27;;;;;;;-1.40;100.00;99390.94;6146581;23;20043;-79
2021/12/04 04:26:39;;;;;;;22.92;13.68;;;;;;;-1.37;100.00;99390.81;6122693;23;20014;-78
2021/12/04 04:29:06;;;;;;;21.80;12.43;;;;;;;-1.30;100.00;99392.22;6123123;23;20013;-77
2021/12/04 04:31:34;;;;;;;20.38;12.77;;;;;;;-1.32;100.00;99394.03;6123096;23;20010;-78
2021/12/04 04:34:03;;;;;;;18.23;12.50;;;;;;;-1.37;100.00;99396.00;6123557;23;20021;-79
2021/12/04 05:11:56;;;;;;;20.85;13.35;;;;;;;-1.52;100.00;99328.56;6122578;23;20021;-78
2021/12/04 05:14:21;;;;;;;17.85;13.15;;;;;;;-1.51;100.00;99335.44;6121637;23;20036;-78
2021/12/04 05:16:53;;;;;;;19.45;14.45;;;;;;;-1.57;100.00;99346.91;6122664;23;20451;-76
2021/12/04 05:19:37;;;;;;;23.80;13.93;;;;;;;-1.75;100.00;99337.41;6121428;23;20631;-78
2021/12/04 05:22:04;;;;;;;20.73;13.43;;;;;;;-1.78;100.00;99337.56;6122401;23;20435;-78
2021/12/04 05:24:30;;;;;;;23.70;14.57;;;;;;;-1.74;100.00;99339.09;6122472;23;20002;-78
2021/12/04 05:26:56;;;;;;;17.42;13.55;;;;;;;-1.66;100.00;99343.03;6120824;23;20018;-78
2021/12/04 05:29:21;;;;;;;25.05;14.38;;;;;;;-1.65;100.00;99354.22;6123766;23;20025;-78
2021/12/04 05:31:47;;;;;;;23.45;13.90;;;;;;;-1.60;100.00;99351.41;6123421;23;20058;-76
2021/12/04 05:34:12;;;;;;;19.58;12.98;;;;;;;-1.65;100.00;99364.56;6123022;23;20002;-78
2021/12/04 05:36:38;;;;;;;20.33;14.18;;;;;;;-1.70;100.00;99351.81;6124450;23;20042;-78
2021/12/04 05:39:05;;;;;;;20.08;14.10;;;;;;;-1.62;100.00;99340.28;6124846;23;20097;-78
2021/12/04 05:41:30;;;;;;;20.38;14.48;;;;;;;-1.66;100.00;99331.84;6123610;23;20006;-78
2021/12/04 05:43:57;;;;;;;22.08;13.60;;;;;;;-1.65;100.00;99338.69;6124754;23;20028;-77
2021/12/04 05:46:27;;;;;;;18.85;12.98;;;;;;;-1.68;100.00;99344.00;6124606;23;20014;-79
2021/12/04 05:48:58;;;;;;;21.23;12.90;;;;;;;-1.72;100.00;99337.28;6124740;23;20014;-78
2021/12/04 05:54:30;;;;;;;15.90;12.90;;;;;;;-1.80;100.00;99331.63;6123460;23;20018;-78
2021/12/04 05:56:53;;;;;;;22.58;14.95;;;;;;;-1.76;100.00;99335.75;6124299;23;20018;-78
2021/12/04 05:59:19;;;;;;;18.67;13.77;;;;;;;-1.75;100.00;99330.50;6124531;23;20018;-75
2021/12/04 06:01:44;;;;;;;20.10;13.02;;;;;;;-1.71;100.00;99328.63;6122914;23;20017;-77
2021/12/04 06:04:10;;;;;;;17.77;13.13;;;;;;;-1.76;100.00;99340.91;6123953;23;20006;-77
2021/12/04 06:06:35;;;;;;;17.25;13.40;;;;;;;-1.74;100.00;99327.00;6122691;23;20416;-76
2021/12/04 06:09:01;;;;;;;20.70;13.50;;;;;;;-1.60;100.00;99330.72;6123163;23;20109;-75
2021/12/04 06:11:29;;;;;;;18.10;12.57;;;;;;;-1.57;100.00;99328.81;6123490;23;20435;-76
2021/12/04 06:13:55;;;;;;;21.73;12.98;;;;;;;-1.50;100.00;99326.75;6124321;23;20035;-76
2021/12/04 06:16:22;;;;;;;20.98;13.52;;;;;;;-1.46;100.00;99318.78;6123719;23;20010;-76
2021/12/04 06:18:51;;;;;;;17.77;12.40;;;;;;;-1.38;100.00;99321.00;6122436;23;20025;-77
2021/12/04 06:24:04;;;;;;;14.70;11.43;;;;;;;-1.33;100.00;99313.84;6124219;23;20054;-79
2021/12/04 06:26:32;;;;;;;15.80;11.23;;;;;;;-1.36;100.00;99301.91;6122298;23;20008;-77
2021/12/04 06:28:58;;;;;;;21.85;12.85;;;;;;;-1.41;100.00;99296.09;6124143;23;20096;-77
2021/12/04 06:31:26;;;;;;;20.67;13.63;;;;;;;-1.46;100.00;99287.72;6120702;23;20014;-80
2021/12/04 06:33:55;;;;;;;19.33;12.73;;;;;;;-1.46;100.00;99292.91;6121822;23;20066;-80
2021/12/04 06:36:22;;;;;;;19.90;13.23;;;;;;;-1.48;100.00;99302.50;6121612;23;20057;-79
2021/12/04 06:38:48;;;;;;;16.73;12.45;;;;;;;-1.45;100.00;99302.34;6121247;23;20026;-78
2021/12/04 06:41:14;;;;;;;17.38;12.80;;;;;;;-1.42;100.00;99309.13;6122806;23;20061;-77
2021/12/04 06:43:45;;;;;;;17.05;11.98;;;;;;;-1.37;100.00;99315.75;6120140;23;20009;-77
2021/12/04 06:46:11;;;;;;;19.08;12.35;;;;;;;-1.38;100.00;99311.50;6120628;23;20170;-76
2021/12/04 06:51:26;;;;;;;17.90;12.20;;;;;;;-1.43;100.00;99308.28;6119504;23;20088;-77
2021/12/04 06:56:21;;;;;;;17.15;12.13;;;;;;;-1.37;100.00;99297.63;6121300;23;20295;-77
2021/12/04 06:58:47;;;;;;;15.00;11.95;;;;;;;-1.38;100.00;99306.31;6119154;23;20026;-76
2021/12/04 07:01:13;;;;;;;16.42;12.45;;;;;;;-1.34;100.00;99292.28;6121276;23;20075;-77
2021/12/04 07:03:40;;;;;;;19.48;13.20;;;;;;;-1.28;100.00;99286.81;6119987;23;20021;-78
2021/12/04 07:06:06;;;;;;;21.85;13.07;;;;;;;-1.23;100.00;99287.44;6121982;23;20097;-78
2021/12/04 07:08:32;;;;;;;21.67;14.43;;;;;;;-1.24;100.00;99287.53;6125383;23;20014;-79
2021/12/04 07:10:59;;;;;;;17.70;12.20;;;;;;;-1.23;100.00;99290.00;6125685;23;20010;-81
2021/12/04 07:13:25;;;;;;;21.95;13.73;;;;;;;-1.25;100.00;99304.81;6147203;23;20113;-81
2021/12/04 07:15:59;;;;;;;18.17;12.68;;;;;;;-1.27;100.00;99293.69;6124978;23;20387;-79
2021/12/04 07:18:25;;;;;;;18.70;12.98;;;;;;;-1.36;100.00;99299.31;6124886;23;20014;-80
2021/12/04 07:20:50;;;;;;;21.02;14.52;;;;;;;-1.34;100.00;99300.06;6124638;23;20697;-83
2021/12/04 07:23:17;;;;;;;21.20;14.00;;;;;;;-1.34;100.00;99307.81;6124635;23;20005;-81
2021/12/04 07:25:42;;;;;;;18.40;13.13;;;;;;;-1.42;100.00;99304.78;6123689;23;20045;-79
2021/12/04 07:28:08;;;;;;;22.05;13.82;;;;;;;-1.48;100.00;99305.09;6147471;23;20018;-78
2021/12/04 07:30:33;;;;;;;21.48;13.93;;;;;;;-1.54;100.00;99300.22;6122699;23;20491;-80
2021/12/04 07:32:59;;;;;;;20.40;13.90;;;;;;;-1.59;100.00;99301.34;6124190;23;20033;-78
2021/12/04 07:35:24;;;;;;;21.88;14.90;;;;;;;-1.58;100.00;99293.47;6124221;23;20010;-82
2021/12/04 07:37:50;;;;;;;21.70;14.98;;;;;;;-1.53;100.00;99309.63;6121444;23;20013;-83
2021/12/04 07:40:16;;;;;;;22.17;15.25;;;;;;;-1.48;100.00;99320.63;6123963;23;20021;-85
2021/12/04 07:42:41;;;;;;;21.23;15.18;;;;;;;-1.50;100.00;99316.41;6125530;23;20095;-80
2021/12/04 07:45:11;;;;;;;23.15;14.82;;;;;;;-1.52;100.00;99319.06;6132347;23;20097;-82
2021/12/04 07:47:38;;;;;;;23.70;14.83;;;;;;;-1.56;100.00;99320.13;6141735;23;20014;-81
2021/12/04 07:50:09;;;;;;;25.15;14.98;;;;;;;-1.46;100.00;99323.94;6145236;23;20093;-86
2021/12/04 07:52:35;;;;;;;21.17;14.32;;;;;;;-1.36;100.00;99314.84;6170324;23;20026;-83
2021/12/04 07:55:02;;;;;;;26.08;14.85;;;;;;;-1.27;100.00;99309.22;6148508;23;20045;-79
2021/12/04 07:57:28;;;;;;;23.10;14.18;;;;;;;-1.14;100.00;99306.03;6135654;23;20037;-79
2021/12/04 07:59:53;;;;;;;21.70;15.38;;;;;;;-1.06;100.00;99301.31;6133377;23;20010;-77
2021/12/04 08:02:19;;;;;;;22.58;14.32;;;;;;;-1.03;100.00;99302.00;6134361;23;20010;-82
2021/12/04 08:04:45;;;;;;;24.42;14.43;;;;;;;-1.05;100.00;99292.59;6125208;23;20021;-81
2021/12/04 08:07:10;;;;;;;23.95;13.77;;;;;;;-1.01;100.00;99301.91;6124975;23;20017;-83
2021/12/04 08:09:36;;;;;;;18.77;13.93;;;;;;;-0.96;100.00;99290.41;6122997;23;20091;-81
2021/12/04 08:12:02;;;;;;;23.20;14.77;;;;;;;-0.97;100.00;99290.47;6124182;23;20017;-81
2021/12/04 08:14:28;;;;;;;26.13;14.57;;;;;;;-1.02;100.00;99295.91;6124068;23;20065;-82
2021/12/04 08:16:53;;;;;;;24.08;14.23;;;;;;;-0.97;100.00;99290.47;6124187;23;20014;-81
2021/12/04 08:19:19;;;;;;;21.88;15.02;;;;;;;-0.95;100.00;99278.31;6124912;23;20010;-81
2021/12/04 08:21:46;;;;;;;18.35;13.68;;;;;;;-0.84;100.00;99281.19;6124953;23;20014;-81
2021/12/04 08:24:13;;;;;;;22.52;14.23;;;;;;;-0.71;100.00;99282.22;6123213;23;20173;-81
2021/12/04 08:26:41;;;;;;;21.40;13.75;;;;;;;-0.77;100.00;99281.72;6122594;23;20619;-82
2021/12/04 08:29:07;;;;;;;21.63;13.75;;;;;;;-0.89;100.00;99272.81;6124410;23;20006;-82
2021/12/04 08:31:33;;;;;;;21.77;14.70;;;;;;;-0.91;100.00;99285.84;6123508;23;20031;-81
2021/12/04 08:33:59;;;;;;;22.80;14.93;;;;;;;-0.89;100.00;99280.59;6123956;23;20010;-82
2021/12/04 08:36:25;;;;;;;23.85;15.05;;;;;;;-0.84;100.00;99276.00;6123934;23;20073;-80
2021/12/04 08:38:51;;;;;;;21.88;14.27;;;;;;;-0.89;100.00;99272.81;6123859;23;20010;-81
2021/12/04 08:41:17;;;;;;;23.67;14.63;;;;;;;-0.85;100.00;99274.31;6124117;23;20021;-82
2021/12/04 08:43:43;;;;;;;20.35;13.93;;;;;;;-0.81;100.00;99286.19;6123437;23;20072;-82
2021/12/04 08:46:09;;;;;;;21.98;14.90;;;;;;;-0.75;100.00;99280.69;6124076;23;20054;-81
2021/12/04 08:48:35;;;;;;;22.20;14.88;;;;;;;-0.62;100.00;99271.38;6125700;23;20029;-84
2021/12/04 08:51:01;;;;;;;22.23;16.17;;;;;;;-0.47;100.00;99280.94;6142142;23;20069;-82
2021/12/04 08:53:28;;;;;;;24.58;15.65;;;;;;;-0.41;100.00;99269.41;6124304;23;20032;-82
2021/12/04 08:55:53;;;;;;;22.48;15.07;;;;;;;-0.29;100.00;99267.91;6124122;23;20013;-82
2021/12/04 08:58:20;;;;;;;24.63;15.82;;;;;;;-0.22;100.00;99284.81;6124575;23;20101;-80
2021/12/04 09:00:53;;;;;;;24.85;15.77;;;;;;;-0.20;100.00;99277.81;6122481;23;20013;-83
2021/12/04 09:03:41;;;;;;;23.80;14.60;;;;;;;-0.19;100.00;99263.94;6123735;23;20461;-81
2021/12/04 09:06:07;;;;;;;20.13;14.07;;;;;;;-0.12;100.00;99267.88;6121842;23;20006;-83
2021/12/04 09:08:34;;;;;;;23.73;14.52;;;;;;;-0.01;100.00;99275.91;6123453;23;20021;-84
2021/12/04 09:11:06;;;;;;;23.80;14.45;;;;;;;0.04;100.00;99270.47;6123259;23;20038;-81
2021/12/04 09:13:33;;;;;;;20.67;14.90;;;;;;;0.07;100.00;99263.34;6121796;23;20010;-82
2021/12/04 09:15:59;;;;;;;23.83;14.30;;;;;;;0.13;100.00;99254.38;6125037;23;20447;-81
2021/12/04 09:18:26;;;;;;;22.95;14.27;;;;;;;0.15;100.00;99263.75;6123235;23;20304;-82
2021/12/04 09:20:54;;;;;;;22.23;14.18;;;;;;;0.25;100.00;99254.53;6123760;23;20067;-82
2021/12/04 09:23:21;;;;;;;23.55;15.45;;;;;;;0.44;100.00;99248.31;6123500;23;20127;-82
2021/12/04 09:25:52;;;;;;;28.17;14.48;;;;;;;0.61;100.00;99246.41;6123648;23;20014;-83
2021/12/04 09:28:21;;;;;;;;;;;;;;;0.81;99.16;99234.91;6122420;23;20026;-82
2021/12/04 09:31:09;;;;;;;19.85;14.10;;;;;;;1.08;98.31;99241.06;6123447;23;19923;-83
2021/12/04 10:11:14;;;;;;;26.33;14.27;;;;;;;1.39;95.71;99197.63;6124607;23;20379;-81
2021/12/04 10:35:06;;;;;;;25.23;14.73;;;;;;;2.09;90.62;99182.78;6138538;23;20077;-83
2021/12/04 10:37:32;;;;;;;23.65;15.65;;;;;;;2.17;90.35;99159.72;6141332;23;20017;-82
2021/12/04 10:40:02;;;;;;;26.80;16.08;;;;;;;2.24;90.09;99146.19;6143399;23;20491;-83
2021/12/04 10:42:38;;;;;;;22.25;15.35;;;;;;;2.35;89.62;99137.69;6142845;23;20009;-81
2021/12/04 10:45:04;;;;;;;22.02;14.93;;;;;;;2.47;88.63;99119.44;6143404;23;20010;-82
2021/12/04 10:47:29;;;;;;;22.92;15.13;;;;;;;2.60;87.72;99110.81;6133111;23;20021;-82
2021/12/04 11:06:45;;;;;;;20.55;14.68;;;;;;;3.09;83.46;99069.19;6125270;23;20052;-81
2021/12/04 11:26:43;;;;;;;30.13;15.73;;;;;;;3.49;82.77;99031.50;6124401;23;20010;-82
2021/12/04 11:43:07;;;;;;;24.75;15.82;;;;;;;3.68;86.01;99008.34;6126103;23;20065;-83
2021/12/04 11:45:50;;;;;;;25.95;16.42;;;;;;;3.65;86.15;99007.75;6127038;23;20010;-83
2021/12/04 11:48:26;;;;;;;22.58;16.30;;;;;;;3.67;86.24;98995.41;6131718;23;20014;-83
2021/12/04 11:50:53;;;;;;;29.13;17.85;;;;;;;3.64;85.46;98991.28;6135911;23;20010;-79
2021/12/04 11:53:20;;;;;;;22.33;15.77;;;;;;;3.67;85.41;98987.59;6136802;23;20032;-82
2021/12/04 11:55:48;;;;;;;28.10;17.27;;;;;;;3.70;85.36;98980.38;6138569;23;20025;-82
2021/12/04 11:58:41;;;;;;;25.90;16.30;;;;;;;3.74;85.64;98972.31;6141135;23;20137;-82
2021/12/04 12:01:20;;;;;;;26.33;16.15;;;;;;;3.77;86.14;98969.50;6139405;23;20017;-83
2021/12/04 12:03:52;;;;;;;26.75;18.20;;;;;;;3.77;86.54;98964.28;6138158;23;20014;-82
2021/12/04 12:06:28;;;;;;;29.33;17.30;;;;;;;3.81;86.85;98944.81;6131458;23;20014;-83
2021/12/04 12:09:03;;;;;;;30.05;16.60;;;;;;;3.85;86.86;98938.41;6126917;23;20017;-83
2021/12/04 12:11:29;;;;;;;27.42;17.60;;;;;;;3.87;87.70;98939.16;6126602;23;20014;-84
2021/12/04 12:13:59;;;;;;;26.58;16.80;;;;;;;3.90;87.42;98938.91;6125457;23;20014;-83
2021/12/04 12:16:35;;;;;;;29.35;17.13;;;;;;;3.92;87.26;98934.41;6125814;23;20069;-83
2021/12/04 12:19:06;;;;;;;24.80;17.30;;;;;;;3.97;87.32;98932.28;6123423;23;20093;-82
2021/12/04 12:22:18;;;;;;;27.50;17.23;;;;;;;3.96;86.48;98922.78;6124869;23;20016;-81
2021/12/04 12:38:08;;;;;;;27.48;18.65;;;;;;;4.04;86.68;98925.63;6124871;23;20074;-82
2021/12/04 12:40:34;;;;;;;28.65;17.63;;;;;;;4.08;86.69;98929.66;6124263;23;20014;-83
2021/12/04 12:43:18;;;;;;;33.00;20.92;;;;;;;4.08;86.64;98925.28;6124133;23;20032;-82
2021/12/04 12:45:58;;;;;;;34.15;21.48;;;;;;;4.05;87.40;98919.47;6124378;23;20014;-82
2021/12/04 12:48:25;;;;;;;32.53;21.05;;;;;;;4.07;87.52;98912.34;6124627;23;20019;-82
2021/12/04 12:50:53;;;;;;;35.22;21.83;;;;;;;4.11;87.76;98900.72;6124334;23;20014;-83
2021/12/04 12:53:27;;;;;;;37.22;22.58;;;;;;;4.15;88.26;98896.09;6124797;23;20084;-82
2021/12/04 12:56:06;;;;;;;37.40;21.67;;;;;;;4.19;88.69;98898.34;6124784;23;20010;-83
2021/12/04 13:12:50;;;;;;;34.42;21.10;;;;;;;4.35;87.80;98872.72;6150616;23;20037;-82
2021/12/04 13:15:30;;;;;;;42.38;21.80;;;;;;;4.42;87.97;98868.66;6141076;23;20036;-83
2021/12/04 13:18:09;;;;;;;32.97;21.58;;;;;;;4.46;87.52;98870.09;6139379;23;20028;-82
2021/12/04 13:20:35;;;;;;;28.20;19.95;;;;;;;4.53;87.68;98844.31;6130729;23;20006;-83
2021/12/04 13:23:12;;;;;;;32.53;20.73;;;;;;;4.61;87.63;98846.28;6134205;23;20010;-83
2021/12/04 13:25:39;;;;;;;36.10;20.40;;;;;;;4.68;87.26;98842.25;6127367;23;20428;-83
2021/12/04 13:30:30;;;;;;;35.65;23.45;;;;;;;4.76;86.17;98853.75;6124502;23;20014;-83
2021/12/04 13:32:57;;;;;;;35.58;21.63;;;;;;;4.74;86.25;98857.44;6124268;23;20002;-84
2021/12/04 13:35:24;;;;;;;33.67;21.73;;;;;;;4.74;86.29;98860.03;6124807;23;20468;-82
2021/12/04 13:37:54;;;;;;;32.05;20.80;;;;;;;4.74;85.66;98857.44;6125382;23;20775;-82
2021/12/04 13:40:20;;;;;;;28.85;20.85;;;;;;;4.73;85.91;98855.75;6124486;23;20006;-82
2021/12/04 13:42:47;;;;;;;34.55;22.00;;;;;;;4.74;85.37;98849.59;6123830;23;20018;-82
2021/12/04 13:45:18;;;;;;;35.20;21.25;;;;;;;4.71;85.16;98836.78;6123774;23;20320;-82
2021/12/04 13:47:51;;;;;;;30.35;21.15;;;;;;;4.73;84.70;98834.84;6123970;23;20069;-82
2021/12/04 13:52:57;;;;;;;33.75;23.13;;;;;;;4.69;85.50;98836.06;6126979;23;20013;-82
2021/12/04 13:55:23;;;;;;;33.05;22.15;;;;;;;4.66;85.10;98834.50;6126921;23;20431;-82
2021/12/04 13:57:50;;;;;;;37.17;23.45;;;;;;;4.65;85.90;98813.75;6124089;23;20017;-83
2021/12/04 14:00:17;;;;;;;35.35;22.60;;;;;;;4.64;86.04;98814.72;6126197;23;20060;-84
2021/12/04 14:02:43;;;;;;;36.70;22.02;;;;;;;4.64;85.64;98796.41;6127293;23;20239;-83
2021/12/04 14:05:14;;;;;;;32.92;22.05;;;;;;;4.57;86.24;98806.53;6125533;23;20006;-84
2021/12/04 14:07:48;;;;;;;32.78;21.13;;;;;;;4.49;86.74;98801.91;6128575;23;20045;-82
2021/12/04 14:10:19;;;;;;;31.42;20.02;;;;;;;4.45;87.75;98790.06;6125404;23;20041;-83
2021/12/04 14:12:45;;;;;;;32.35;21.52;;;;;;;4.43;88.15;98797.16;6125816;23;20010;-83
2021/12/04 14:15:14;;;;;;;31.63;21.58;;;;;;;4.45;88.03;98795.28;6149079;23;20010;-83
2021/12/04 14:17:40;;;;;;;36.47;22.20;;;;;;;4.44;87.78;98790.16;6125558;23;20021;-83
2021/12/04 14:20:07;;;;;;;28.67;20.98;;;;;;;4.41;88.03;98788.66;6125046;23;20101;-83
2021/12/04 14:22:33;;;;;;;34.28;23.30;;;;;;;4.42;88.50;98794.66;6124549;23;20021;-83
2021/12/04 14:25:02;;;;;;;37.33;23.10;;;;;;;4.43;88.26;98796.34;6124722;23;20010;-83
2021/12/04 14:27:31;;;;;;;33.22;22.60;;;;;;;4.39;88.57;98780.09;6126051;23;20300;-83
2021/12/04 14:30:10;;;;;;;35.45;23.38;;;;;;;4.41;88.70;98772.13;6126093;23;20076;-82
2021/12/04 14:32:39;;;;;;;33.92;23.25;;;;;;;4.40;88.61;98771.31;6126531;23;20057;-82
2021/12/04 14:35:13;;;;;;;34.72;23.83;;;;;;;4.38;89.17;98777.59;6149146;23;20037;-83
2021/12/04 14:37:42;;;;;;;33.58;22.88;;;;;;;4.38;89.62;98782.81;6125595;23;20006;-82
2021/12/04 14:40:11;;;;;;;41.10;23.65;;;;;;;4.39;89.85;98785.31;6125932;23;20447;-82
2021/12/04 14:42:37;;;;;;;36.08;22.73;;;;;;;4.38;89.57;98767.97;6125287;23;20006;-82
2021/12/04 14:45:11;;;;;;;30.80;22.50;;;;;;;4.38;90.62;98767.97;6127224;23;20085;-83
2021/12/04 14:47:47;;;;;;;35.13;23.08;;;;;;;4.38;90.71;98762.75;6125518;23;20053;-81
2021/12/04 14:50:16;;;;;;;39.53;24.13;;;;;;;4.37;90.30;98761.09;6125153;23;20020;-82